createdAt,value
2018-09-23T00:01:50.022Z,1.90
2018-09-23T00:04:18.521Z,2.43
2018-09-23T00:06:47.042Z,2.17
2018-09-23T00:09:15.440Z,1.70
2018-09-23T00:11:43.815Z,2.10
2018-09-23T00:14:12.205Z,2.10
2018-09-23T00:16:40.624Z,2.27
2018-09-23T00:19:09.016Z,2.53
2018-09-23T00:21:37.391Z,2.73
2018-09-23T00:24:05.791Z,2.20
2018-09-23T00:26:34.200Z,2.10
2018-09-23T00:29:02.597Z,1.90
2018-09-23T00:31:30.981Z,2.63
2018-09-23T00:33:59.393Z,2.53
2018-09-23T00:36:27.766Z,2.70
2018-09-23T00:38:56.182Z,2.77
2018-09-23T00:41:24.557Z,2.63
2018-09-23T00:43:52.950Z,2.33
2018-09-23T00:46:21.336Z,2.43
2018-09-23T00:48:49.740Z,2.87
2018-09-23T00:51:18.112Z,3.27
2018-09-23T00:53:46.517Z,3.43
2018-09-23T00:56:14.890Z,2.90
2018-09-23T00:58:43.294Z,2.63
2018-09-23T01:01:11.667Z,2.73
2018-09-23T01:03:40.091Z,3.03
2018-09-23T01:06:08.475Z,3.23
2018-09-23T01:08:36.870Z,2.63
2018-09-23T01:11:05.234Z,2.70
2018-09-23T01:13:33.631Z,3.13
2018-09-23T01:16:02.002Z,4.23
2018-09-23T01:18:30.406Z,3.57
2018-09-23T01:20:58.782Z,3.67
2018-09-23T01:23:27.167Z,3.00
2018-09-23T01:25:55.670Z,3.50
2018-09-23T01:28:24.066Z,2.90
2018-09-23T01:30:52.442Z,3.00
2018-09-23T01:33:20.849Z,3.20
2018-09-23T01:35:49.278Z,3.80
2018-09-23T01:38:17.676Z,3.33
2018-09-23T01:40:46.139Z,3.60
2018-09-23T01:43:14.529Z,4.10
2018-09-23T01:45:42.902Z,3.60
2018-09-23T01:48:11.316Z,4.13
2018-09-23T01:50:39.694Z,3.80
2018-09-23T01:53:08.069Z,3.47
2018-09-23T01:55:36.466Z,3.43
2018-09-23T01:58:04.842Z,4.10
2018-09-23T02:00:33.278Z,3.50
2018-09-23T02:03:01.659Z,3.97
2018-09-23T02:05:30.074Z,3.80
2018-09-23T02:07:58.446Z,4.10
2018-09-23T02:10:26.842Z,4.83
2018-09-23T02:12:55.217Z,4.10
2018-09-23T02:15:23.606Z,3.70
2018-09-23T02:17:51.979Z,3.57
2018-09-23T02:20:20.370Z,3.70
2018-09-23T02:22:48.754Z,4.53
2018-09-23T02:25:17.162Z,3.57
2018-09-23T02:27:45.562Z,4.57
2018-09-23T02:30:13.959Z,4.00
2018-09-23T02:32:42.327Z,4.67
2018-09-23T02:35:10.719Z,4.67
2018-09-23T02:37:39.084Z,4.40
2018-09-23T02:40:07.606Z,4.87
2018-09-23T02:42:35.982Z,4.60
2018-09-23T02:45:04.397Z,3.70
2018-09-23T02:47:32.762Z,4.20
2018-09-23T02:50:01.159Z,4.70
2018-09-23T02:52:29.529Z,5.43
2018-09-23T02:54:57.922Z,5.00
2018-09-23T02:57:26.290Z,5.47
2018-09-23T02:59:54.702Z,4.53
2018-09-23T03:02:23.078Z,5.37
2018-09-23T03:04:51.476Z,5.27
2018-09-23T03:07:19.853Z,5.33
2018-09-23T03:09:48.247Z,4.50
2018-09-23T03:12:16.610Z,5.40
2018-09-23T03:14:44.994Z,5.40
2018-09-23T03:17:13.353Z,6.40
2018-09-23T03:19:42.270Z,5.10
2018-09-23T03:22:10.638Z,5.57
2018-09-23T03:24:39.037Z,5.93
2018-09-23T03:27:07.422Z,6.00
2018-09-23T03:29:35.813Z,6.37
2018-09-23T03:32:04.192Z,6.90
2018-09-23T03:34:32.595Z,7.10
2018-09-23T03:37:00.959Z,6.40
2018-09-23T03:39:29.345Z,7.30
2018-09-23T03:41:57.710Z,7.20
2018-09-23T03:44:26.106Z,6.93
2018-09-23T03:46:54.481Z,5.87
2018-09-23T03:49:22.878Z,7.70
2018-09-23T03:51:51.257Z,7.03
2018-09-23T03:54:19.668Z,7.00
2018-09-23T03:56:48.062Z,6.83
2018-09-23T03:59:16.426Z,6.93
2018-09-23T04:01:44.814Z,7.70
2018-09-23T04:04:13.179Z,7.23
2018-09-23T04:06:41.576Z,6.60
2018-09-23T04:09:09.943Z,6.90
2018-09-23T04:11:38.379Z,6.43
2018-09-23T04:14:06.908Z,6.67
2018-09-23T04:16:35.528Z,6.33
2018-09-23T04:19:03.898Z,6.90
2018-09-23T04:21:32.358Z,6.63
2018-09-23T04:24:00.754Z,7.40
2018-09-23T04:26:29.165Z,6.73
2018-09-23T04:28:57.530Z,7.67
2018-09-23T04:31:26.008Z,6.17
2018-09-23T04:33:54.378Z,7.40
2018-09-23T04:36:22.770Z,6.87
2018-09-23T04:38:51.145Z,7.23
2018-09-23T04:41:19.583Z,7.00
2018-09-23T04:43:47.958Z,7.30
2018-09-23T04:46:16.350Z,8.07
2018-09-23T04:48:44.717Z,7.33
2018-09-23T04:51:13.106Z,6.93
2018-09-23T04:53:41.481Z,6.97
2018-09-23T04:56:09.870Z,8.77
2018-09-23T04:58:38.230Z,8.13
2018-09-23T05:01:06.630Z,7.87
2018-09-23T05:03:35.026Z,7.90
2018-09-23T05:06:03.417Z,8.07
2018-09-23T05:08:31.782Z,7.17
2018-09-23T05:11:00.174Z,8.47
2018-09-23T05:13:28.554Z,8.30
2018-09-23T05:15:56.946Z,8.73
2018-09-23T05:18:25.322Z,8.57
2018-09-23T05:20:53.717Z,8.13
2018-09-23T05:23:22.083Z,8.50
2018-09-23T05:25:50.503Z,7.07
2018-09-23T05:28:19.109Z,8.37
2018-09-23T05:30:47.508Z,8.17
2018-09-23T05:33:15.874Z,8.30
2018-09-23T05:35:44.266Z,7.77
2018-09-23T05:38:12.657Z,7.50
2018-09-23T05:40:41.078Z,8.10
2018-09-23T05:43:09.455Z,8.37
2018-09-23T05:45:37.837Z,8.47
2018-09-23T05:48:06.233Z,8.53
2018-09-23T05:50:34.606Z,8.07
2018-09-23T05:53:03.005Z,9.27
2018-09-23T05:55:31.376Z,7.60
2018-09-23T05:57:59.771Z,7.30
2018-09-23T06:00:30.610Z,8.80
2018-09-23T06:02:59.056Z,8.73
2018-09-23T06:05:27.405Z,10.00
2018-09-23T06:07:55.793Z,7.90
2018-09-23T06:10:24.164Z,8.30
2018-09-23T06:12:52.562Z,8.00
2018-09-23T06:15:20.930Z,8.37
2018-09-23T06:17:49.322Z,7.60
2018-09-23T06:20:17.695Z,9.30
2018-09-23T06:22:46.086Z,7.60
2018-09-23T06:25:14.487Z,9.27
2018-09-23T06:27:42.905Z,8.70
2018-09-23T06:30:11.277Z,8.73
2018-09-23T06:32:39.678Z,8.00
2018-09-23T06:35:08.073Z,8.97
2018-09-23T06:37:36.466Z,8.70
2018-09-23T06:40:05.353Z,8.63
2018-09-23T06:42:33.755Z,8.63
2018-09-23T06:45:02.131Z,8.73
2018-09-23T06:47:30.546Z,9.67
2018-09-23T06:49:58.934Z,7.00
2018-09-23T06:52:27.333Z,8.53
2018-09-23T06:54:55.706Z,9.50
2018-09-23T06:57:24.124Z,8.53
2018-09-23T06:59:53.265Z,8.50
2018-09-23T07:02:21.656Z,8.20
2018-09-23T07:04:50.051Z,7.70
2018-09-23T07:07:18.498Z,7.00
2018-09-23T07:09:47.261Z,7.77
2018-09-23T07:12:15.742Z,8.47
2018-09-23T07:14:44.118Z,7.47
2018-09-23T07:17:12.519Z,7.70
2018-09-23T07:19:40.895Z,7.80
2018-09-23T07:22:09.294Z,8.27
2018-09-23T07:24:37.751Z,7.10
2018-09-23T07:27:06.166Z,6.53
2018-09-23T07:29:34.541Z,9.03
2018-09-23T07:32:02.982Z,7.70
2018-09-23T07:34:31.358Z,7.60
2018-09-23T07:36:59.842Z,7.23
2018-09-23T07:39:28.150Z,7.27
2018-09-23T07:41:56.554Z,6.57
2018-09-23T07:44:24.926Z,7.23
2018-09-23T07:46:53.337Z,7.40
2018-09-23T07:49:21.709Z,6.97
2018-09-23T07:51:50.082Z,7.00
2018-09-23T07:54:18.491Z,7.40
2018-09-23T07:56:46.877Z,6.23
2018-09-23T07:59:15.273Z,7.30
2018-09-23T08:01:43.663Z,6.50
2018-09-23T08:04:12.266Z,6.30
2018-09-23T08:06:40.642Z,6.90
2018-09-23T08:09:10.054Z,6.90
2018-09-23T08:11:39.022Z,7.20
2018-09-23T08:14:08.070Z,7.23
2018-09-23T08:16:36.146Z,6.27
2018-09-23T08:19:04.544Z,6.00
2018-09-23T08:21:32.937Z,7.37
2018-09-23T08:24:01.338Z,6.80
2018-09-23T08:26:29.758Z,5.70
2018-09-23T08:28:58.150Z,6.37
2018-09-23T08:31:26.526Z,5.70
2018-09-23T08:33:54.922Z,7.07
2018-09-23T08:36:23.297Z,7.33
2018-09-23T08:38:51.722Z,5.50
2018-09-23T08:41:20.098Z,6.10
2018-09-23T08:43:48.493Z,6.00
2018-09-23T08:46:16.882Z,6.73
2018-09-23T08:48:45.305Z,6.07
2018-09-23T08:51:15.438Z,6.00
2018-09-23T08:53:43.831Z,5.27
2018-09-23T08:56:12.300Z,6.57
2018-09-23T08:58:40.706Z,6.33
2018-09-23T09:01:09.076Z,6.17
2018-09-23T09:03:37.485Z,6.07
2018-09-23T09:06:05.879Z,5.93
2018-09-23T09:08:34.274Z,4.87
2018-09-23T09:11:02.657Z,5.03
2018-09-23T09:13:31.054Z,4.60
2018-09-23T09:15:59.426Z,4.30
2018-09-23T09:18:27.918Z,4.23
2018-09-23T09:20:56.226Z,6.10
2018-09-23T09:23:24.618Z,4.33
2018-09-23T09:25:53.014Z,5.27
2018-09-23T09:28:21.406Z,4.47
2018-09-23T09:30:49.777Z,4.10
2018-09-23T09:33:18.170Z,4.40
2018-09-23T09:35:46.638Z,4.07
2018-09-23T09:38:15.031Z,3.90
2018-09-23T09:40:43.423Z,4.90
2018-09-23T09:43:11.819Z,4.00
2018-09-23T09:45:40.192Z,4.33
2018-09-23T09:48:08.598Z,4.10
2018-09-23T09:50:36.978Z,4.50
2018-09-23T09:53:05.360Z,4.40
2018-09-23T09:55:33.775Z,4.33
2018-09-23T09:58:02.155Z,5.17
2018-09-23T10:00:34.297Z,3.90
2018-09-23T10:03:03.578Z,4.13
2018-09-23T10:05:31.982Z,3.80
2018-09-23T10:08:00.426Z,4.07
2018-09-23T10:10:28.846Z,3.67
2018-09-23T10:12:57.222Z,3.70
2018-09-23T10:15:25.641Z,3.37
2018-09-23T10:17:54.013Z,4.07
2018-09-23T10:20:22.410Z,3.83
2018-09-23T10:22:50.803Z,4.07
2018-09-23T10:25:19.246Z,4.63
2018-09-23T10:27:47.623Z,3.00
2018-09-23T10:30:16.019Z,3.67
2018-09-23T10:32:44.395Z,3.53
2018-09-23T10:35:12.800Z,3.70
2018-09-23T10:37:41.175Z,2.47
2018-09-23T10:40:09.570Z,3.33
2018-09-23T10:42:37.954Z,3.00
2018-09-23T10:45:06.528Z,2.97
2018-09-23T10:47:34.911Z,2.90
2018-09-23T10:50:03.306Z,2.80
2018-09-23T10:52:31.685Z,2.90
2018-09-23T10:55:00.091Z,3.33
2018-09-23T10:57:28.462Z,2.73
2018-09-23T10:59:56.858Z,2.07
2018-09-23T11:02:25.221Z,2.87
2018-09-23T11:04:53.614Z,3.10
2018-09-23T11:07:22.041Z,2.33
2018-09-23T11:09:50.638Z,2.97
2018-09-23T11:12:19.124Z,2.90
2018-09-23T11:14:47.526Z,2.67
2018-09-23T11:17:15.917Z,2.43
2018-09-23T11:19:44.318Z,2.60
2018-09-23T11:22:12.733Z,2.30
2018-09-23T11:24:41.134Z,3.00
2018-09-23T11:27:09.534Z,2.20
2018-09-23T11:29:37.931Z,2.20
2018-09-23T11:32:06.526Z,2.03
2018-09-23T11:34:34.937Z,1.77
2018-09-23T11:37:03.301Z,2.00
2018-09-23T11:39:31.718Z,2.00
2018-09-23T11:42:00.190Z,2.37
2018-09-23T11:44:28.561Z,2.23
2018-09-23T11:46:56.969Z,2.20
2018-09-23T11:49:25.342Z,2.67
2018-09-23T11:51:53.733Z,1.43
2018-09-23T11:54:22.106Z,2.23
2018-09-23T11:56:50.502Z,2.17
2018-09-23T11:59:18.897Z,1.80
2018-09-23T12:01:47.286Z,2.23
2018-09-23T12:04:15.666Z,2.00
2018-09-23T12:06:44.062Z,2.10
2018-09-23T12:09:13.603Z,3.00
2018-09-23T12:11:41.999Z,3.30
2018-09-23T12:14:10.866Z,2.53
2018-09-23T12:16:39.262Z,2.67
2018-09-23T12:19:07.630Z,2.40
2018-09-23T12:21:36.030Z,7.97
2018-09-23T12:24:04.406Z,2.30
2018-09-23T12:26:32.829Z,2.17
2018-09-23T12:29:01.236Z,2.40
2018-09-23T12:31:29.645Z,2.27
2018-09-23T12:33:58.022Z,2.63
2018-09-23T12:36:26.429Z,2.80
2018-09-23T12:38:54.805Z,2.70
2018-09-23T12:41:23.206Z,2.57
2018-09-23T12:43:51.599Z,3.10
2018-09-23T12:46:20.007Z,3.23
2018-09-23T12:48:48.382Z,3.30
2018-09-23T12:51:16.778Z,2.97
2018-09-23T12:53:45.158Z,2.80
2018-09-23T12:56:13.660Z,3.37
2018-09-23T12:58:42.041Z,3.80
2018-09-23T13:01:10.429Z,2.90
2018-09-23T13:03:38.803Z,2.90
2018-09-23T13:06:07.210Z,2.77
2018-09-23T13:08:35.592Z,2.90
2018-09-23T13:11:03.993Z,2.60
2018-09-23T13:13:32.362Z,2.60
2018-09-23T13:16:00.768Z,3.03
2018-09-23T13:18:29.141Z,2.93
2018-09-23T13:20:57.546Z,3.20
2018-09-23T13:23:25.914Z,3.00
2018-09-23T13:25:54.378Z,2.43
2018-09-23T13:28:22.758Z,3.33
2018-09-23T13:30:51.170Z,3.17
2018-09-23T13:33:19.569Z,3.20
2018-09-23T13:35:47.943Z,4.67
2018-09-23T13:38:16.516Z,2.57
2018-09-23T13:40:44.898Z,4.07
2018-09-23T13:43:13.289Z,3.10
2018-09-23T13:45:41.661Z,2.80
2018-09-23T13:48:10.049Z,2.60
2018-09-23T13:50:38.425Z,2.80
2018-09-23T13:53:06.823Z,4.03
2018-09-23T13:55:35.204Z,2.60
2018-09-23T13:58:03.598Z,3.47
2018-09-23T14:00:31.975Z,2.97
2018-09-23T14:03:00.370Z,2.57
2018-09-23T14:05:28.744Z,3.53
2018-09-23T14:07:57.146Z,3.77
2018-09-23T14:10:25.534Z,4.00
2018-09-23T14:12:53.934Z,3.70
2018-09-23T14:15:22.314Z,3.63
2018-09-23T14:17:50.707Z,2.53
2018-09-23T14:20:19.082Z,2.97
2018-09-23T14:22:47.482Z,3.10
2018-09-23T14:25:15.875Z,2.80
2018-09-23T14:27:44.274Z,3.43
2018-09-23T14:30:12.651Z,4.03
2018-09-23T14:32:41.055Z,3.10
2018-09-23T14:35:09.439Z,3.10
2018-09-23T14:37:37.870Z,3.30
2018-09-23T14:40:06.242Z,3.57
2018-09-23T14:42:34.686Z,2.63
2018-09-23T14:45:03.041Z,3.10
2018-09-23T14:47:31.447Z,2.70
2018-09-23T14:49:59.826Z,2.73
2018-09-23T14:52:28.297Z,3.43
2018-09-23T14:54:56.792Z,4.17
2018-09-23T14:57:25.098Z,5.50
2018-09-23T14:59:54.367Z,5.33
2018-09-23T15:02:21.898Z,3.70
2018-09-23T15:04:50.265Z,3.93
2018-09-23T15:07:18.661Z,3.43
2018-09-23T15:09:47.032Z,3.30
2018-09-23T15:12:15.458Z,3.80
2018-09-23T15:14:43.834Z,3.40
2018-09-23T15:17:12.246Z,3.63
2018-09-23T15:19:40.614Z,3.47
2018-09-23T15:22:09.445Z,3.50
2018-09-23T15:24:37.842Z,3.13
2018-09-23T15:27:06.538Z,3.03
2018-09-23T15:29:34.940Z,4.43
2018-09-23T15:32:03.317Z,3.47
2018-09-23T15:34:31.714Z,4.07
2018-09-23T15:37:00.082Z,4.50
2018-09-23T15:39:28.481Z,4.10
2018-09-23T15:41:56.863Z,4.50
2018-09-23T15:44:25.265Z,3.87
2018-09-23T15:46:53.650Z,4.57
2018-09-23T15:49:22.050Z,5.50
2018-09-23T15:51:50.442Z,5.57
2018-09-23T15:54:18.841Z,3.90
2018-09-23T15:56:47.259Z,3.30
2018-09-23T15:59:15.660Z,5.00
2018-09-23T16:01:44.034Z,3.60
2018-09-23T16:04:12.443Z,5.17
2018-09-23T16:06:40.814Z,4.30
2018-09-23T16:09:09.806Z,4.10
2018-09-23T16:11:38.682Z,4.90
2018-09-23T16:14:07.299Z,5.27
2018-09-23T16:16:35.678Z,4.60
2018-09-23T16:19:04.147Z,4.10
2018-09-23T16:21:34.374Z,3.90
2018-09-23T16:24:02.981Z,4.23
2018-09-23T16:26:31.818Z,4.40
2018-09-23T16:29:00.425Z,3.77
2018-09-23T16:31:28.824Z,5.37
2018-09-23T16:33:57.230Z,9.00
2018-09-23T16:36:25.750Z,15.67
2018-09-23T16:38:54.316Z,19.27
2018-09-23T16:41:22.750Z,22.30
2018-09-23T16:43:51.218Z,22.07
2018-09-23T16:46:19.617Z,13.57
2018-09-23T16:48:48.202Z,12.77
2018-09-23T16:51:16.598Z,30.43
2018-09-23T16:53:45.002Z,23.83
2018-09-23T16:56:13.446Z,23.80
2018-09-23T16:58:41.860Z,33.00
2018-09-23T17:01:10.244Z,15.97
2018-09-23T17:03:38.650Z,20.43
2018-09-23T17:06:07.033Z,12.37
2018-09-23T17:08:35.458Z,11.13
2018-09-23T17:11:03.837Z,6.97
2018-09-23T17:13:32.218Z,7.03
2018-09-23T17:16:00.713Z,7.03
2018-09-23T17:18:29.137Z,5.37
2018-09-23T17:20:57.543Z,7.90
2018-09-23T17:23:25.921Z,6.97
2018-09-23T17:25:54.346Z,6.50
2018-09-23T17:28:22.741Z,5.20
2018-09-23T17:30:51.351Z,5.20
2018-09-23T17:33:19.726Z,5.50
2018-09-23T17:35:48.118Z,4.60
2018-09-23T17:38:16.506Z,4.13
2018-09-23T17:40:44.965Z,4.80
2018-09-23T17:43:13.319Z,4.10
2018-09-23T17:45:41.730Z,3.90
2018-09-23T17:48:10.107Z,4.43
2018-09-23T17:50:38.511Z,4.30
2018-09-23T17:53:06.951Z,5.00
2018-09-23T17:55:35.379Z,5.53
2018-09-23T17:58:03.775Z,4.30
2018-09-23T18:00:32.182Z,3.80
2018-09-23T18:03:00.559Z,4.27
2018-09-23T18:05:30.526Z,3.50
2018-09-23T18:07:58.989Z,3.63
2018-09-23T18:10:27.366Z,4.23
2018-09-23T18:12:55.755Z,3.93
2018-09-23T18:15:24.149Z,3.53
2018-09-23T18:17:52.528Z,3.60
2018-09-23T18:20:20.921Z,5.03
2018-09-23T18:22:49.302Z,5.27
2018-09-23T18:25:17.718Z,5.23
2018-09-23T18:27:46.091Z,4.73
2018-09-23T18:30:14.481Z,5.17
2018-09-23T18:32:43.171Z,5.10
2018-09-23T18:35:11.605Z,5.20
2018-09-23T18:37:40.004Z,5.50
2018-09-23T18:40:08.530Z,4.90
2018-09-23T18:42:36.923Z,5.00
2018-09-23T18:45:05.462Z,5.03
2018-09-23T18:47:33.836Z,4.47
2018-09-23T18:50:02.507Z,4.37
2018-09-23T18:52:30.873Z,4.73
2018-09-23T18:55:04.612Z,4.20
2018-09-23T18:57:32.990Z,3.73
2018-09-23T19:00:01.406Z,3.70
2018-09-23T19:02:29.797Z,3.40
2018-09-23T19:04:58.250Z,3.40
2018-09-23T19:07:26.642Z,3.10
2018-09-23T19:09:55.009Z,2.70
2018-09-23T19:12:23.402Z,3.93
2018-09-23T19:14:51.777Z,2.87
2018-09-23T19:17:20.167Z,2.33
2018-09-23T19:19:54.010Z,2.07
2018-09-23T19:22:27.739Z,2.00
2018-09-23T19:24:56.154Z,1.20
2018-09-23T19:27:24.738Z,1.23
2018-09-23T19:29:53.138Z,1.83
2018-09-23T19:32:21.555Z,1.23
2018-09-23T19:34:49.934Z,1.60
2018-09-23T19:37:18.334Z,1.43
2018-09-23T19:39:46.907Z,1.23
2018-09-23T19:42:15.311Z,1.20
2018-09-23T19:44:43.682Z,1.20
2018-09-23T19:47:12.070Z,1.23
2018-09-23T19:49:40.442Z,1.40
2018-09-23T19:52:08.838Z,1.30
2018-09-23T19:54:37.214Z,1.30
2018-09-23T19:57:05.634Z,1.20
2018-09-23T19:59:34.007Z,0.83
2018-09-23T20:02:02.469Z,1.20
2018-09-23T20:04:30.840Z,1.20
2018-09-23T20:06:59.300Z,1.30
2018-09-23T20:09:27.649Z,1.30
2018-09-23T20:11:56.050Z,1.10
2018-09-23T20:14:24.447Z,1.10
2018-09-23T20:16:52.847Z,1.30
2018-09-23T20:19:21.218Z,1.10
2018-09-23T20:21:49.610Z,1.53
2018-09-23T20:24:17.994Z,1.80
2018-09-23T20:26:46.410Z,1.77
2018-09-23T20:29:14.785Z,2.40
2018-09-23T20:31:43.190Z,2.23
2018-09-23T20:34:11.565Z,2.50
2018-09-23T20:36:39.989Z,2.40
2018-09-23T20:39:09.458Z,2.77
2018-09-23T20:41:37.859Z,2.73
2018-09-23T20:44:06.250Z,3.40
2018-09-23T20:46:34.653Z,3.53
2018-09-23T20:49:03.026Z,2.97
2018-09-23T20:51:31.418Z,2.03
2018-09-23T20:53:59.787Z,2.27
2018-09-23T20:56:28.178Z,3.00
2018-09-23T20:58:56.542Z,2.70
2018-09-23T21:01:24.919Z,1.93
2018-09-23T21:03:53.315Z,1.50
2018-09-23T21:06:21.681Z,1.73
2018-09-23T21:08:50.078Z,1.90
2018-09-23T21:11:18.450Z,1.93
2018-09-23T21:13:46.846Z,1.80
2018-09-23T21:16:15.223Z,1.60
2018-09-23T21:18:43.622Z,1.93
2018-09-23T21:21:11.992Z,2.10
2018-09-23T21:23:40.390Z,1.80
2018-09-23T21:26:08.799Z,1.80
2018-09-23T21:28:37.190Z,2.10
2018-09-23T21:31:05.829Z,1.27
2018-09-23T21:33:34.214Z,1.27
2018-09-23T21:36:02.590Z,1.20
2018-09-23T21:38:31.043Z,1.37
2018-09-23T21:40:59.422Z,2.10
2018-09-23T21:43:27.814Z,1.30
2018-09-23T21:45:56.187Z,1.40
2018-09-23T21:48:24.586Z,1.17
2018-09-23T21:50:52.951Z,1.20
2018-09-23T21:53:21.350Z,1.90
2018-09-23T21:55:49.714Z,1.83
2018-09-23T21:58:18.118Z,1.33
2018-09-23T22:00:46.486Z,1.20
2018-09-23T22:03:15.316Z,1.73
2018-09-23T22:05:43.693Z,1.03
2018-09-23T22:08:12.677Z,1.40
2018-09-23T22:10:41.040Z,1.63
2018-09-23T22:13:09.437Z,1.70
2018-09-23T22:15:37.822Z,1.47
2018-09-23T22:18:06.217Z,1.33
2018-09-23T22:20:34.590Z,1.67
2018-09-23T22:23:02.982Z,1.10
2018-09-23T22:25:31.398Z,1.13
2018-09-23T22:27:59.791Z,1.63
2018-09-23T22:30:28.160Z,1.60
2018-09-23T22:32:56.545Z,1.37
2018-09-23T22:35:24.906Z,2.20
2018-09-23T22:37:53.365Z,1.50
2018-09-23T22:40:21.742Z,1.20
2018-09-23T22:42:50.154Z,1.70
2018-09-23T22:45:18.526Z,1.53
2018-09-23T22:47:46.950Z,1.30
2018-09-23T22:50:15.313Z,1.60
2018-09-23T22:52:43.680Z,1.40
2018-09-23T22:55:12.081Z,1.47
2018-09-23T22:57:40.453Z,1.30
2018-09-23T23:00:08.850Z,0.90
2018-09-23T23:02:37.225Z,1.70
2018-09-23T23:05:05.629Z,1.43
2018-09-23T23:07:33.997Z,1.23
2018-09-23T23:10:02.390Z,1.20
2018-09-23T23:12:30.770Z,1.30
2018-09-23T23:14:59.167Z,0.93
2018-09-23T23:17:27.530Z,1.30
2018-09-23T23:19:55.929Z,1.97
2018-09-23T23:22:24.305Z,2.30
2018-09-23T23:24:52.694Z,1.70
2018-09-23T23:27:21.120Z,1.20
2018-09-23T23:29:49.493Z,1.50
2018-09-23T23:32:17.858Z,1.60
2018-09-23T23:34:46.247Z,1.00
2018-09-23T23:37:14.606Z,1.20
2018-09-23T23:39:43.000Z,1.53
2018-09-23T23:42:11.368Z,1.30
2018-09-23T23:44:39.758Z,1.13
2018-09-23T23:47:08.331Z,1.10
2018-09-23T23:49:36.754Z,0.93
2018-09-23T23:52:05.146Z,1.33
2018-09-23T23:54:33.544Z,1.50
2018-09-23T23:57:01.914Z,0.97
2018-09-23T23:59:30.313Z,1.07
